Time;durP1;ratioP1;P1;durP2;ratioP2;P2;SDS_P1;SDS_P2;PMS_P1;PMS_P2;Temp;Humidity;BMP_temperature;BMP_pressure;BME280_temperature;BME280_humidity;BME280_pressure;Samples;Min_cycle;Max_cycle;Signal;HPM_P1;HPM_P2
2023/09/20 00:01:48;;;;;;;5.78;1.90;;;29.70;37.80;;;;;;5000428;28;20337;-85
2023/09/20 00:04:21;;;;;;;4.80;1.90;;;29.80;37.90;;;;;;5013311;28;20691;-86
2023/09/20 00:06:53;;;;;;;5.03;1.98;;;29.90;37.90;;;;;;5014445;28;20202;-86
2023/09/20 00:09:23;;;;;;;6.68;2.00;;;29.90;37.50;;;;;;5014284;28;20194;-86
2023/09/20 00:11:54;;;;;;;6.28;1.90;;;30.00;37.30;;;;;;5015780;28;20258;-87
2023/09/20 00:14:25;;;;;;;4.55;2.10;;;30.00;37.00;;;;;;5029134;28;20206;-86
2023/09/20 00:16:56;;;;;;;4.45;1.80;;;30.00;38.20;;;;;;5023028;28;20210;-87
2023/09/20 00:19:29;;;;;;;5.38;1.83;;;30.20;37.30;;;;;;5003643;28;20574;-86
2023/09/20 00:21:59;;;;;;;4.60;1.95;;;30.30;37.80;;;;;;5015464;28;20198;-86
2023/09/20 00:24:30;;;;;;;4.95;2.22;;;30.50;37.20;;;;;;5033837;28;20189;-85
2023/09/20 00:27:02;;;;;;;7.55;1.83;;;30.50;36.20;;;;;;5011357;28;20198;-85
2023/09/20 00:29:33;;;;;;;5.80;1.70;;;30.60;36.70;;;;;;5011399;28;20222;-85
2023/09/20 00:32:04;;;;;;;5.20;1.92;;;30.70;36.30;;;;;;5018755;28;20285;-86
2023/09/20 00:34:37;;;;;;;2.60;1.67;;;30.70;36.50;;;;;;5008169;28;20669;-86
2023/09/20 00:37:08;;;;;;;6.68;2.00;;;30.70;36.10;;;;;;5013600;28;20245;-86
2023/09/20 00:39:39;;;;;;;3.95;2.00;;;30.90;36.30;;;;;;5014766;28;20585;-87
2023/09/20 00:42:10;;;;;;;5.13;2.13;;;31.00;36.00;;;;;;4997649;28;20206;-87
2023/09/20 00:44:41;;;;;;;2.95;1.90;;;31.10;35.90;;;;;;4994346;28;20716;-87
2023/09/20 00:47:11;;;;;;;4.13;1.85;;;31.20;35.30;;;;;;5010966;28;20561;-86
2023/09/20 00:49:45;;;;;;;5.63;1.85;;;31.20;35.70;;;;;;5011875;28;20264;-87
2023/09/20 00:52:16;;;;;;;4.30;1.80;;;31.30;35.50;;;;;;4994285;28;20191;-86
2023/09/20 00:54:47;;;;;;;4.53;2.10;;;31.40;35.60;;;;;;4999388;28;20265;-86
2023/09/20 00:57:19;;;;;;;4.82;1.98;;;31.40;35.00;;;;;;5024945;28;20217;-86
2023/09/20 00:59:51;;;;;;;6.75;1.85;;;31.50;35.50;;;;;;5033340;28;20232;-87
2023/09/20 01:02:22;;;;;;;3.03;2.00;;;31.70;35.30;;;;;;5022902;28;20654;-85
2023/09/20 01:04:56;;;;;;;5.13;2.10;;;31.80;34.00;;;;;;5009269;28;20199;-85
2023/09/20 01:07:28;;;;;;;3.03;2.03;;;31.80;34.50;;;;;;5012776;28;20186;-86
2023/09/20 01:10:00;;;;;;;4.35;2.00;;;31.90;34.70;;;;;;5012204;28;20213;-86
2023/09/20 01:12:31;;;;;;;2.67;1.92;;;32.00;33.30;;;;;;5011803;28;20193;-85
2023/09/20 01:15:02;;;;;;;2.00;1.80;;;31.90;33.70;;;;;;5018446;28;20225;-85
2023/09/20 01:17:33;;;;;;;4.07;1.80;;;32.10;33.80;;;;;;5026537;28;20272;-86
2023/09/20 01:20:12;;;;;;;4.25;2.00;;;32.20;34.30;;;;;;5012371;28;20190;-85
2023/09/20 01:22:45;;;;;;;5.60;2.20;;;32.30;33.80;;;;;;5012002;28;20289;-86
2023/09/20 01:25:24;;;;;;;2.25;2.05;;;32.50;33.20;;;;;;5011152;28;20225;-85
2023/09/20 01:27:57;;;;;;;3.58;1.98;;;32.50;33.30;;;;;;5008233;28;20301;-85
2023/09/20 01:30:28;;;;;;;5.60;2.20;;;32.50;32.70;;;;;;4992829;28;20190;-86
2023/09/20 01:33:03;;;;;;;9.35;2.50;;;32.50;32.10;;;;;;4993049;28;20207;-86
2023/09/20 01:35:34;;;;;;;5.03;1.83;;;32.50;32.10;;;;;;5007432;28;20197;-85
2023/09/20 01:38:10;;;;;;;7.97;2.20;;;32.50;31.70;;;;;;5011219;28;20237;-85
2023/09/20 01:40:41;;;;;;;5.82;2.20;;;32.70;32.80;;;;;;5013122;28;20186;-86
2023/09/20 01:43:11;;;;;;;12.65;2.50;;;32.70;31.30;;;;;;5013195;28;20197;-86
2023/09/20 01:45:43;;;;;;;4.65;2.10;;;32.70;31.20;;;;;;5011393;28;20706;-86
2023/09/20 01:48:15;;;;;;;5.75;2.13;;;32.70;31.70;;;;;;5012909;28;20245;-85
2023/09/20 01:50:47;;;;;;;5.32;2.35;;;32.80;31.60;;;;;;5012844;28;20205;-86
2023/09/20 01:53:19;;;;;;;3.40;2.10;;;32.90;31.20;;;;;;5013379;28;20252;-85
2023/09/20 01:55:51;;;;;;;3.00;2.10;;;32.90;31.20;;;;;;5013287;28;20198;-86
2023/09/20 01:58:23;;;;;;;2.83;2.08;;;32.80;31.50;;;;;;5012640;28;20296;-85
2023/09/20 02:00:57;;;;;;;5.25;2.20;;;33.00;31.60;;;;;;5012511;28;20191;-86
2023/09/20 02:03:31;;;;;;;4.00;2.38;;;33.10;31.60;;;;;;5005082;28;20212;-84
2023/09/20 02:06:02;;;;;;;5.38;1.95;;;33.20;32.00;;;;;;5007436;28;20213;-84
2023/09/20 02:08:34;;;;;;;5.63;2.35;;;33.20;31.40;;;;;;5013062;28;20232;-84
2023/09/20 02:11:05;;;;;;;4.18;2.17;;;33.30;30.90;;;;;;5012783;28;20198;-84
2023/09/20 02:13:36;;;;;;;3.60;2.40;;;33.30;31.50;;;;;;5011082;28;20602;-84
2023/09/20 02:16:07;;;;;;;7.13;2.38;;;33.30;31.20;;;;;;5017028;28;20245;-81
2023/09/20 02:18:38;;;;;;;5.40;2.28;;;33.40;30.60;;;;;;5027643;28;20237;-85
2023/09/20 02:21:09;;;;;;;6.18;2.20;;;33.50;30.80;;;;;;5009535;28;20684;-84
2023/09/20 02:23:42;;;;;;;3.92;2.15;;;33.50;31.00;;;;;;5011531;28;20224;-84
2023/09/20 02:26:13;;;;;;;2.97;1.98;;;33.50;30.90;;;;;;5011232;28;20206;-83
2023/09/20 02:28:44;;;;;;;2.85;1.88;;;33.70;30.50;;;;;;5011783;28;20540;-84
2023/09/20 02:31:17;;;;;;;6.78;2.42;;;33.70;30.30;;;;;;5012380;28;20202;-84
2023/09/20 02:33:50;;;;;;;5.93;2.50;;;33.90;31.30;;;;;;5011267;28;20212;-83
2023/09/20 02:36:21;;;;;;;6.55;2.33;;;33.80;30.50;;;;;;5000395;28;20282;-84
2023/09/20 02:38:53;;;;;;;7.95;2.22;;;33.90;29.80;;;;;;5001916;28;20715;-84
2023/09/20 02:41:25;;;;;;;4.20;2.08;;;33.80;29.70;;;;;;5009875;28;20198;-85
2023/09/20 02:43:56;;;;;;;4.53;2.40;;;33.70;30.30;;;;;;5011413;28;20229;-83
2023/09/20 02:46:27;;;;;;;5.00;1.90;;;33.80;29.70;;;;;;5011651;28;20571;-84
2023/09/20 02:48:58;;;;;;;5.47;2.22;;;33.90;29.50;;;;;;5009817;28;20205;-81
2023/09/20 02:51:30;;;;;;;6.65;1.88;;;34.10;29.70;;;;;;5006263;28;20601;-84
2023/09/20 02:54:03;;;;;;;5.55;2.20;;;34.10;29.70;;;;;;5003209;28;20206;-83
2023/09/20 02:56:34;;;;;;;8.95;2.58;;;34.30;29.60;;;;;;5008245;28;20222;-84
2023/09/20 02:59:07;;;;;;;4.78;2.30;;;34.40;29.00;;;;;;5008848;28;20723;-84
2023/09/20 03:01:38;;;;;;;3.22;2.13;;;34.50;29.10;;;;;;4998199;28;20190;-84
2023/09/20 03:04:10;;;;;;;3.67;2.00;;;34.60;29.70;;;;;;4997443;28;20563;-84
2023/09/20 03:06:41;;;;;;;2.72;2.15;;;34.70;29.60;;;;;;5009300;28;20209;-84
2023/09/20 03:09:14;;;;;;;5.20;2.38;;;34.90;29.20;;;;;;5010931;28;20213;-84
2023/09/20 03:11:44;;;;;;;2.88;1.95;;;35.00;29.30;;;;;;5010343;28;20628;-83
2023/09/20 03:14:15;;;;;;;5.00;2.10;;;35.20;29.60;;;;;;5029003;28;20838;-84
2023/09/20 03:16:46;;;;;;;2.47;2.00;;;35.10;29.20;;;;;;5010270;28;20229;-83
2023/09/20 03:19:20;;;;;;;6.40;1.90;;;35.20;29.20;;;;;;5032041;28;20220;-83
2023/09/20 03:21:51;;;;;;;3.53;2.25;;;35.30;28.70;;;;;;4992681;28;20285;-83
2023/09/20 03:24:24;;;;;;;5.13;2.40;;;35.20;28.60;;;;;;5006211;28;20209;-82
2023/09/20 03:26:55;;;;;;;5.72;2.30;;;35.30;28.60;;;;;;5009922;28;20198;-83
2023/09/20 03:29:26;;;;;;;6.45;2.25;;;35.30;27.50;;;;;;4996811;28;20210;-83
2023/09/20 03:31:58;;;;;;;4.90;2.20;;;35.40;27.90;;;;;;5000703;28;20199;-83
2023/09/20 03:34:29;;;;;;;5.60;2.20;;;35.40;28.20;;;;;;5005436;28;20205;-83
2023/09/20 03:37:01;;;;;;;4.43;2.15;;;35.40;27.90;;;;;;5005114;28;20236;-84
2023/09/20 03:39:35;;;;;;;4.13;2.30;;;35.40;27.20;;;;;;5001593;28;20230;-83
2023/09/20 03:42:07;;;;;;;2.42;2.10;;;35.40;27.90;;;;;;4998849;28;20194;-84
2023/09/20 03:44:38;;;;;;;6.75;2.28;;;35.50;27.70;;;;;;5006692;28;20194;-83
2023/09/20 03:47:10;;;;;;;5.55;2.08;;;35.60;28.00;;;;;;5013392;28;20205;-84
2023/09/20 03:49:41;;;;;;;9.18;2.17;;;35.60;28.20;;;;;;5003250;28;20198;-83
2023/09/20 03:52:12;;;;;;;8.30;2.45;;;35.50;27.50;;;;;;5012492;28;20205;-82
2023/09/20 03:54:45;;;;;;;3.70;2.20;;;35.40;27.80;;;;;;5005516;28;20217;-83
2023/09/20 03:57:17;;;;;;;3.90;2.20;;;35.40;27.90;;;;;;5008103;28;20202;-83
2023/09/20 03:59:48;;;;;;;5.03;2.40;;;35.40;28.10;;;;;;5000989;28;20198;-82
2023/09/20 04:02:18;;;;;;;4.88;2.22;;;35.20;27.20;;;;;;5004818;28;20190;-84
2023/09/20 04:04:49;;;;;;;3.47;2.58;;;35.10;27.30;;;;;;5005069;28;20553;-83
2023/09/20 04:07:19;;;;;;;7.70;2.25;;;35.00;27.40;;;;;;5005797;28;20616;-82
2023/09/20 04:09:51;;;;;;;3.00;2.03;;;34.80;27.40;;;;;;5011800;28;20229;-82
2023/09/20 04:12:23;;;;;;;4.60;2.45;;;34.70;27.60;;;;;;5008678;28;20666;-83
2023/09/20 04:14:54;;;;;;;4.43;2.28;;;34.70;27.40;;;;;;5001159;28;20298;-84
2023/09/20 04:17:25;;;;;;;4.03;2.33;;;34.60;27.60;;;;;;4999804;28;20297;-83
2023/09/20 04:19:56;;;;;;;4.45;2.45;;;34.50;27.40;;;;;;5028191;28;20225;-84
2023/09/20 04:22:27;;;;;;;5.20;2.38;;;34.60;27.70;;;;;;5016623;28;20186;-83
2023/09/20 04:25:00;;;;;;;8.88;2.45;;;34.60;27.80;;;;;;5003427;28;20195;-83
2023/09/20 04:27:31;;;;;;;5.80;2.70;;;34.60;28.30;;;;;;5015178;28;20194;-83
2023/09/20 04:30:03;;;;;;;4.63;2.83;;;34.70;27.90;;;;;;5015702;28;20229;-83
2023/09/20 04:32:34;;;;;;;8.48;2.60;;;34.60;27.70;;;;;;5014157;28;20209;-84
2023/09/20 04:35:06;;;;;;;7.65;2.50;;;34.50;27.80;;;;;;5012776;28;20213;-84
2023/09/20 04:37:41;;;;;;;6.63;2.28;;;34.50;27.80;;;;;;5020124;28;20688;-85
2023/09/20 04:40:14;;;;;;;4.53;2.47;;;34.40;28.00;;;;;;5021040;28;20205;-83
2023/09/20 04:42:45;;;;;;;4.25;2.20;;;34.40;27.90;;;;;;5009269;28;20187;-84
2023/09/20 04:45:19;;;;;;;3.45;2.20;;;34.40;27.80;;;;;;5014941;28;20217;-83
2023/09/20 04:47:50;;;;;;;3.58;2.45;;;34.40;27.80;;;;;;5013695;28;20627;-83
2023/09/20 04:50:21;;;;;;;5.15;2.53;;;34.40;27.80;;;;;;5011163;28;20549;-83
2023/09/20 04:52:52;;;;;;;2.70;2.20;;;34.40;28.20;;;;;;5014037;28;20198;-83
2023/09/20 04:55:25;;;;;;;4.47;2.30;;;34.50;28.00;;;;;;5019405;28;20191;-83
2023/09/20 04:57:56;;;;;;;6.88;2.45;;;34.50;27.80;;;;;;5008565;28;20709;-83
2023/09/20 05:00:33;;;;;;;4.65;2.10;;;34.40;27.90;;;;;;5007317;28;20191;-85
2023/09/20 05:03:04;;;;;;;5.78;2.42;;;34.40;28.30;;;;;;5007013;28;20204;-85
2023/09/20 05:05:35;;;;;;;4.72;2.10;;;34.50;28.50;;;;;;5002893;28;20194;-83
2023/09/20 05:08:10;;;;;;;3.22;2.33;;;34.40;28.30;;;;;;5006045;28;20669;-84
2023/09/20 05:10:45;;;;;;;3.25;2.30;;;34.50;28.10;;;;;;5006778;28;20272;-83
2023/09/20 05:13:19;;;;;;;4.07;2.30;;;34.50;28.20;;;;;;5010270;28;20204;-83
2023/09/20 05:15:50;;;;;;;5.40;2.50;;;34.60;28.00;;;;;;5004874;28;20201;-83
2023/09/20 05:18:21;;;;;;;5.28;2.05;;;34.60;28.10;;;;;;5017911;28;20218;-84
2023/09/20 05:20:58;;;;;;;3.05;2.30;;;34.70;28.20;;;;;;5029690;28;20256;-84
2023/09/20 05:23:40;;;;;;;5.80;2.30;;;34.80;28.40;;;;;;5012974;28;20248;-84
2023/09/20 05:26:12;;;;;;;2.67;2.13;;;35.00;28.20;;;;;;5012389;28;20273;-83
2023/09/20 05:28:43;;;;;;;4.88;2.33;;;35.00;28.30;;;;;;5007876;28;20253;-84
2023/09/20 05:31:14;;;;;;;3.83;2.30;;;35.10;27.90;;;;;;5011001;28;20213;-83
2023/09/20 05:33:45;;;;;;;4.60;2.10;;;35.10;27.80;;;;;;5015470;28;20228;-83
2023/09/20 05:36:16;;;;;;;3.42;2.45;;;35.10;28.20;;;;;;5012443;28;20661;-84
2023/09/20 05:38:46;;;;;;;3.55;2.35;;;35.20;27.90;;;;;;5005359;28;20234;-83
2023/09/20 05:41:21;;;;;;;4.28;2.33;;;35.20;27.60;;;;;;4995417;28;20285;-83
2023/09/20 05:43:51;;;;;;;4.25;2.47;;;35.20;27.50;;;;;;5001287;28;20620;-83
2023/09/20 05:46:24;;;;;;;7.60;2.67;;;35.30;27.60;;;;;;5003485;28;20191;-83
2023/09/20 05:48:55;;;;;;;5.43;2.53;;;35.40;27.50;;;;;;5003529;28;20206;-85
2023/09/20 05:51:26;;;;;;;6.63;2.80;;;35.30;26.30;;;;;;5013238;28;20194;-83
2023/09/20 05:53:57;;;;;;;5.90;2.70;;;35.20;25.70;;;;;;5013227;28;20232;-83
2023/09/20 05:56:30;;;;;;;4.05;2.83;;;35.20;26.00;;;;;;5014406;28;20669;-84
2023/09/20 05:59:01;;;;;;;4.28;2.63;;;35.30;25.60;;;;;;4999231;28;20222;-83
2023/09/20 06:01:32;;;;;;;6.82;2.70;;;35.30;25.60;;;;;;5005432;28;20673;-84
2023/09/20 06:04:04;;;;;;;6.90;2.53;;;35.30;26.00;;;;;;5009127;28;20205;-82
2023/09/20 06:06:35;;;;;;;3.95;2.60;;;35.30;25.90;;;;;;5004562;28;20194;-83
2023/09/20 06:09:06;;;;;;;3.42;2.80;;;35.40;25.60;;;;;;5001269;28;20212;-84
2023/09/20 06:11:39;;;;;;;7.18;2.75;;;35.30;25.50;;;;;;5003578;28;20195;-84
2023/09/20 06:14:10;;;;;;;4.30;2.70;;;35.20;25.30;;;;;;4996220;28;20199;-84
2023/09/20 06:16:40;;;;;;;6.57;2.83;;;35.20;25.50;;;;;;5001896;28;20190;-83
2023/09/20 06:19:11;;;;;;;4.38;2.50;;;35.20;25.50;;;;;;5007473;28;20711;-82
2023/09/20 06:21:43;;;;;;;6.95;2.65;;;35.20;25.50;;;;;;5020994;28;20743;-83
2023/09/20 06:24:15;;;;;;;6.03;2.70;;;35.50;25.10;;;;;;5015615;28;20281;-84
2023/09/20 06:26:48;;;;;;;6.65;2.78;;;35.60;25.10;;;;;;5010783;28;20198;-84
2023/09/20 06:29:19;;;;;;;4.35;2.60;;;35.90;25.20;;;;;;5011328;28;20281;-84
2023/09/20 06:31:50;;;;;;;5.65;2.75;;;36.20;25.00;;;;;;5012032;28;20245;-85
2023/09/20 06:34:22;;;;;;;4.07;2.50;;;36.40;25.60;;;;;;5011364;28;20220;-84
2023/09/20 06:36:52;;;;;;;3.13;2.80;;;36.70;25.10;;;;;;5007669;28;20277;-84
2023/09/20 06:39:25;;;;;;;5.45;2.67;;;36.70;24.80;;;;;;5030776;28;20441;-84
2023/09/20 06:41:59;;;;;;;7.95;2.70;;;36.40;24.50;;;;;;5030800;28;20208;-83
2023/09/20 06:44:30;;;;;;;4.78;2.83;;;36.40;24.40;;;;;;5012995;28;20190;-84
2023/09/20 06:47:01;;;;;;;3.22;2.42;;;36.30;24.60;;;;;;5015223;28;20197;-84
2023/09/20 06:49:38;;;;;;;4.38;2.67;;;36.30;25.00;;;;;;5017253;28;20189;-84
2023/09/20 06:52:12;;;;;;;6.32;2.55;;;36.20;24.90;;;;;;5020537;28;20571;-85
2023/09/20 06:54:45;;;;;;;9.10;2.90;;;36.10;24.50;;;;;;5017744;28;20294;-85
2023/09/20 06:57:19;;;;;;;6.28;2.92;;;35.60;24.80;;;;;;5022207;28;21972;-84
2023/09/20 06:59:51;;;;;;;5.95;2.70;;;35.30;24.90;;;;;;5020744;28;20221;-83
2023/09/20 07:02:26;;;;;;;7.25;2.80;;;35.00;25.40;;;;;;5025040;28;20198;-84
2023/09/20 07:05:01;;;;;;;4.82;2.67;;;34.60;25.40;;;;;;5020176;28;20205;-84
2023/09/20 07:07:35;;;;;;;7.22;2.70;;;34.40;25.30;;;;;;5025992;28;20267;-84
2023/09/20 07:10:11;;;;;;;5.45;2.72;;;34.20;26.10;;;;;;5027945;28;20204;-86
2023/09/20 07:12:47;;;;;;;5.93;2.80;;;33.90;25.80;;;;;;5027247;28;20264;-84
2023/09/20 07:15:19;;;;;;;7.78;2.60;;;33.80;26.60;;;;;;5018829;28;20240;-84
2023/09/20 07:18:11;;;;;;;5.70;3.08;;;33.70;26.50;;;;;;5011858;28;20198;-86
2023/09/20 07:20:43;;;;;;;4.03;2.70;;;33.50;26.00;;;;;;5013371;28;20224;-86
2023/09/20 07:23:18;;;;;;;8.65;2.95;;;33.40;26.70;;;;;;5016954;28;20688;-84
2023/09/20 07:26:12;;;;;;;3.67;2.70;;;33.20;26.70;;;;;;5020867;28;20190;-86
2023/09/20 07:28:46;;;;;;;3.70;2.65;;;33.10;27.00;;;;;;5018213;28;20252;-85
2023/09/20 07:31:20;;;;;;;7.68;2.70;;;33.10;26.70;;;;;;5011411;28;20696;-85
2023/09/20 07:33:51;;;;;;;3.10;2.65;;;33.00;26.80;;;;;;5003819;28;20194;-85
2023/09/20 07:36:22;;;;;;;5.63;2.70;;;33.00;26.90;;;;;;5008687;28;20565;-84
2023/09/20 07:38:54;;;;;;;3.17;2.65;;;32.90;27.20;;;;;;5009988;28;20229;-84
2023/09/20 07:41:25;;;;;;;3.47;2.63;;;32.80;27.30;;;;;;4999871;28;20230;-82
2023/09/20 07:44:00;;;;;;;5.15;2.72;;;32.70;27.40;;;;;;4993072;28;20203;-84
2023/09/20 07:46:33;;;;;;;4.00;2.53;;;32.60;27.50;;;;;;5010722;28;20209;-84
2023/09/20 07:49:09;;;;;;;4.82;2.67;;;32.50;27.70;;;;;;5008953;28;20209;-84
2023/09/20 07:51:41;;;;;;;3.45;2.63;;;32.40;28.00;;;;;;5000060;28;20206;-84
2023/09/20 07:54:14;;;;;;;3.75;2.80;;;32.30;28.00;;;;;;4995053;28;20202;-85
2023/09/20 07:56:49;;;;;;;3.88;3.08;;;32.10;28.10;;;;;;5012075;28;20600;-86
2023/09/20 07:59:23;;;;;;;4.47;2.75;;;32.10;27.90;;;;;;5010418;28;20224;-86
2023/09/20 08:01:54;;;;;;;4.82;2.80;;;32.00;28.10;;;;;;5023623;28;20196;-86
2023/09/20 08:04:25;;;;;;;5.90;3.10;;;31.90;28.50;;;;;;5030770;28;20717;-84
2023/09/20 08:06:59;;;;;;;3.28;2.50;;;31.90;28.80;;;;;;5000936;28;20213;-84
2023/09/20 08:09:29;;;;;;;6.80;2.63;;;31.80;29.00;;;;;;5007359;28;20195;-83
2023/09/20 08:12:00;;;;;;;8.70;3.00;;;31.70;29.30;;;;;;4994871;28;20209;-84
2023/09/20 08:14:33;;;;;;;3.05;2.60;;;31.60;29.20;;;;;;4996454;28;20199;-85
2023/09/20 08:19:50;;;;;;;3.28;2.80;;;31.50;28.30;;;;;;5023194;28;20233;-84
2023/09/20 08:22:21;;;;;;;4.15;2.58;;;31.60;28.50;;;;;;5022253;28;20221;-83
2023/09/20 09:01:08;;;;;;;6.07;2.67;;;30.70;30.30;;;;;;4994285;28;20724;-86
2023/09/20 09:03:41;;;;;;;5.70;3.00;;;30.60;30.80;;;;;;4992826;28;20199;-86
2023/09/20 09:06:13;;;;;;;4.40;2.95;;;30.40;31.00;;;;;;5012001;28;20201;-86
2023/09/20 09:08:45;;;;;;;3.47;2.83;;;30.30;32.20;;;;;;5015015;28;20553;-85
2023/09/20 09:11:17;;;;;;;3.95;2.85;;;30.20;31.70;;;;;;5029166;28;20585;-86
2023/09/20 09:13:48;;;;;;;6.43;3.30;;;30.10;31.70;;;;;;5009403;28;20199;-85
2023/09/20 09:16:21;;;;;;;5.78;2.75;;;30.00;31.30;;;;;;4993861;28;20202;-84
2023/09/20 09:18:53;;;;;;;4.97;2.70;;;30.00;31.10;;;;;;5003877;28;20198;-86
2023/09/20 09:21:25;;;;;;;7.45;3.10;;;29.90;31.20;;;;;;5013481;28;20658;-86
2023/09/20 09:23:57;;;;;;;5.05;2.72;;;29.80;32.00;;;;;;5025050;28;20229;-86
2023/09/20 09:26:27;;;;;;;3.55;2.90;;;29.70;33.20;;;;;;5015176;28;20201;-85
2023/09/20 09:28:59;;;;;;;3.85;2.65;;;29.70;33.60;;;;;;5013288;28;20197;-85
2023/09/20 09:31:32;;;;;;;4.80;3.25;;;29.60;33.40;;;;;;5012478;28;20182;-87
2023/09/20 09:34:07;;;;;;;5.18;3.40;;;29.50;33.30;;;;;;5009930;28;20198;-86
2023/09/20 09:36:40;;;;;;;6.28;2.97;;;29.40;33.70;;;;;;5002987;28;20272;-87
2023/09/20 09:39:14;;;;;;;4.03;2.95;;;29.30;33.70;;;;;;5005450;28;20661;-86
2023/09/20 09:41:45;;;;;;;3.40;2.70;;;29.20;34.60;;;;;;5012652;28;20197;-87
2023/09/20 09:44:16;;;;;;;7.20;3.10;;;29.20;35.00;;;;;;4998783;28;20203;-86
2023/09/20 09:46:46;;;;;;;5.22;2.70;;;29.10;35.30;;;;;;5032506;28;20201;-86
2023/09/20 09:49:22;;;;;;;7.43;3.30;;;29.10;35.00;;;;;;5012208;28;20592;-87
2023/09/20 09:51:54;;;;;;;5.70;3.20;;;29.00;35.20;;;;;;5011263;28;20197;-85
2023/09/20 09:54:25;;;;;;;5.97;3.50;;;29.00;34.90;;;;;;5012599;28;20705;-84
2023/09/20 09:56:56;;;;;;;6.93;3.83;;;28.90;35.70;;;;;;5012833;28;20197;-84
2023/09/20 09:59:28;;;;;;;5.82;3.88;;;28.90;35.90;;;;;;5012298;28;20209;-84
2023/09/20 10:02:02;;;;;;;6.35;3.90;;;28.80;35.90;;;;;;5012435;28;20196;-85
2023/09/20 10:04:37;;;;;;;5.72;3.67;;;28.70;35.50;;;;;;5010059;28;20190;-85
2023/09/20 10:07:16;;;;;;;5.30;3.70;;;28.70;35.60;;;;;;5009275;28;20649;-85
2023/09/20 10:09:52;;;;;;;6.20;3.63;;;28.60;36.40;;;;;;4992383;28;20740;-84
2023/09/20 10:12:25;;;;;;;7.53;3.30;;;28.50;35.60;;;;;;4996562;28;20252;-84
2023/09/20 10:14:59;;;;;;;5.18;3.88;;;28.50;35.50;;;;;;5011756;28;20194;-85
2023/09/20 10:17:31;;;;;;;8.07;4.88;;;28.50;35.50;;;;;;5016751;28;20229;-87
2023/09/20 10:20:07;;;;;;;4.00;3.50;;;28.50;34.40;;;;;;5021926;28;20287;-86
2023/09/20 10:22:45;;;;;;;5.90;3.50;;;28.50;34.60;;;;;;5011892;28;20228;-85
2023/09/20 10:25:33;;;;;;;6.15;3.75;;;28.40;35.10;;;;;;5023301;28;20204;-86
2023/09/20 10:28:10;;;;;;;4.07;3.35;;;28.40;35.40;;;;;;5012409;28;20201;-87
2023/09/20 10:31:04;;;;;;;5.53;3.20;;;28.30;35.20;;;;;;5010414;28;20198;-86
2023/09/20 10:33:47;;;;;;;5.68;3.58;;;28.30;34.60;;;;;;5025293;28;20519;-86
2023/09/20 10:36:25;;;;;;;5.53;3.17;;;28.30;35.00;;;;;;5010212;28;20197;-85
2023/09/20 10:39:23;;;;;;;7.88;3.25;;;28.30;35.20;;;;;;5032024;28;20271;-87
2023/09/20 10:41:56;;;;;;;6.30;3.70;;;28.20;37.00;;;;;;5028616;28;20656;-86
2023/09/20 10:44:36;;;;;;;8.07;3.90;;;28.20;36.50;;;;;;5011125;28;20201;-87
2023/09/20 10:47:11;;;;;;;4.50;3.47;;;28.10;36.20;;;;;;5011593;28;20196;-87
2023/09/20 10:49:47;;;;;;;6.22;3.70;;;28.00;37.00;;;;;;5010581;28;20193;-86
2023/09/20 10:52:58;;;;;;;4.57;3.58;;;28.00;37.80;;;;;;5015764;28;20284;-86
2023/09/20 10:55:39;;;;;;;5.95;4.03;;;27.90;37.70;;;;;;5029523;28;20189;-86
2023/09/20 10:58:10;;;;;;;5.25;4.00;;;27.80;37.50;;;;;;5011274;28;20194;-85
2023/09/20 11:00:42;;;;;;;5.57;4.20;;;27.80;37.20;;;;;;5010887;28;20233;-85
2023/09/20 11:03:13;;;;;;;9.05;4.20;;;27.70;37.80;;;;;;5011212;28;20190;-85
2023/09/20 11:05:44;;;;;;;6.40;4.03;;;27.70;38.80;;;;;;5007567;28;20273;-86
2023/09/20 11:08:21;;;;;;;6.25;4.25;;;27.70;38.90;;;;;;5011798;28;20204;-86
2023/09/20 11:10:51;;;;;;;6.78;3.95;;;27.60;39.10;;;;;;5010234;28;20540;-86
2023/09/20 11:13:22;;;;;;;9.60;5.50;;;27.60;38.60;;;;;;5010794;28;20198;-85
2023/09/20 11:15:53;;;;;;;8.85;4.95;;;27.50;38.30;;;;;;5011018;28;20201;-86
2023/09/20 11:18:24;;;;;;;8.50;4.80;;;27.50;39.50;;;;;;5010959;28;20205;-85
2023/09/20 11:20:55;;;;;;;8.27;3.55;;;27.50;38.50;;;;;;5009977;28;20221;-84
2023/09/20 11:23:29;;;;;;;6.45;4.43;;;27.60;35.10;;;;;;5011657;28;20304;-84
2023/09/20 11:26:00;;;;;;;7.57;5.20;;;27.60;38.20;;;;;;5017175;28;20212;-86
2023/09/20 11:28:32;;;;;;;10.13;5.88;;;27.60;37.10;;;;;;5014283;28;20194;-85
2023/09/20 11:31:04;;;;;;;10.30;5.43;;;27.70;36.80;;;;;;5015053;28;20236;-85
2023/09/20 11:33:35;;;;;;;9.20;5.35;;;27.80;36.60;;;;;;5014427;28;20272;-85
2023/09/20 11:36:18;;;;;;;8.82;4.95;;;27.80;36.70;;;;;;5012158;28;20201;-84
2023/09/20 11:38:51;;;;;;;7.55;5.35;;;27.90;36.30;;;;;;5013697;28;20221;-85
2023/09/20 11:41:23;;;;;;;7.90;5.35;;;27.80;36.60;;;;;;5014573;28;20735;-86
2023/09/20 11:43:58;;;;;;;9.70;5.18;;;27.80;36.80;;;;;;5015238;28;20204;-87
2023/09/20 11:46:34;;;;;;;10.07;5.68;;;27.90;37.10;;;;;;5015694;28;20193;-86
2023/09/20 11:49:06;;;;;;;19.83;5.03;;;27.90;37.70;;;;;;5015505;28;20692;-88
2023/09/20 11:51:39;;;;;;;12.98;4.50;;;27.80;46.10;;;;;;5013772;28;20206;-87
2023/09/20 11:54:13;;;;;;;22.35;5.07;;;27.40;54.10;;;;;;5015521;28;20204;-87
2023/09/20 11:56:49;;;;;;;24.40;5.15;;;26.80;63.90;;;;;;5016268;28;20205;-86
2023/09/20 11:59:22;;;;;;;20.20;5.07;;;26.10;78.60;;;;;;5019459;28;20204;-86
2023/09/20 12:01:53;;;;;;;22.50;5.95;;;25.50;90.40;;;;;;5035263;28;20260;-86
2023/09/20 12:04:24;;;;;;;27.27;5.50;;;25.20;94.20;;;;;;5025015;28;20205;-87
2023/09/20 12:06:56;;;;;;;31.52;5.95;;;24.80;99.60;;;;;;5004837;28;20226;-89
2023/09/20 12:09:32;;;;;;;27.60;5.88;;;24.50;99.90;;;;;;5007739;28;20187;-87
2023/09/20 12:12:04;;;;;;;29.60;6.40;;;24.30;99.90;;;;;;4996508;28;20213;-88
2023/09/20 12:14:37;;;;;;;25.75;5.85;;;23.90;99.90;;;;;;5004154;28;20189;-90
2023/09/20 12:17:08;;;;;;;33.33;6.05;;;23.70;99.90;;;;;;5035279;28;20193;-89
2023/09/20 12:19:41;;;;;;;27.80;6.25;;;23.70;99.90;;;;;;5035318;28;20645;-89
2023/09/20 12:22:12;;;;;;;31.52;6.25;;;23.60;99.90;;;;;;5020047;28;20628;-87
2023/09/20 12:24:44;;;;;;;34.53;6.50;;;23.50;99.90;;;;;;5001519;28;20191;-89
2023/09/20 12:27:17;;;;;;;29.70;6.10;;;23.40;99.90;;;;;;5019282;28;20182;-89
2023/09/20 12:29:48;;;;;;;32.10;7.30;;;23.30;99.90;;;;;;5006637;28;20281;-89
2023/09/20 12:32:19;;;;;;;37.30;6.93;;;23.00;99.90;;;;;;5015532;28;20194;-89
2023/09/20 12:34:51;;;;;;;32.65;6.78;;;23.00;99.90;;;;;;5016037;28;20198;-88
2023/09/20 12:37:22;;;;;;;28.10;6.05;;;22.70;99.90;;;;;;5013022;28;20245;-90
2023/09/20 12:39:54;;;;;;;33.35;6.38;;;22.80;99.90;;;;;;5014504;28;20204;-88
2023/09/20 12:42:27;;;;;;;31.38;6.57;;;22.70;99.90;;;;;;4996924;28;20222;-89
2023/09/20 12:44:58;;;;;;;30.40;6.25;;;22.50;99.90;;;;;;5001492;28;20190;-88
2023/09/20 12:47:29;;;;;;;25.60;6.05;;;22.40;99.90;;;;;;5015032;28;20534;-88
2023/09/20 12:50:00;;;;;;;29.65;5.65;;;22.40;99.90;;;;;;5015522;28;20197;-87
2023/09/20 12:52:31;;;;;;;39.13;6.95;;;22.30;99.90;;;;;;5017789;28;20637;-87
2023/09/20 12:55:05;;;;;;;32.47;5.90;;;22.20;99.90;;;;;;5013674;28;20277;-87
2023/09/20 12:57:38;;;;;;;29.92;6.15;;;22.00;99.90;;;;;;5014830;28;20193;-87
2023/09/20 13:00:13;;;;;;;30.75;6.57;;;22.00;99.90;;;;;;4995045;28;20701;-89
2023/09/20 13:02:47;;;;;;;33.30;6.25;;;22.00;99.90;;;;;;4994688;28;20252;-88
2023/09/20 13:05:18;;;;;;;32.63;6.18;;;21.90;99.90;;;;;;5013869;28;20198;-89
2023/09/20 13:07:49;;;;;;;28.38;5.85;;;22.00;99.90;;;;;;5015038;28;20206;-87
2023/09/20 13:10:22;;;;;;;30.23;5.80;;;21.90;99.90;;;;;;5013992;28;20198;-88
2023/09/20 13:12:53;;;;;;;25.52;5.55;;;21.90;99.90;;;;;;5014237;28;20194;-89
2023/09/20 13:15:24;;;;;;;28.25;6.30;;;21.90;99.90;;;;;;5014210;28;20194;-88
2023/09/20 13:17:56;;;;;;;23.67;5.28;;;21.90;99.90;;;;;;5014570;28;20634;-90
2023/09/20 13:20:27;;;;;;;28.05;5.47;;;21.90;99.90;;;;;;5013744;28;20202;-89
2023/09/20 13:22:58;;;;;;;29.13;5.60;;;21.80;99.90;;;;;;5011883;28;20233;-90
2023/09/20 13:25:31;;;;;;;27.83;6.05;;;21.80;99.90;;;;;;5015154;28;20194;-88
2023/09/20 13:28:02;;;;;;;27.67;5.90;;;21.80;99.90;;;;;;5028681;28;20194;-86
2023/09/20 13:30:35;;;;;;;33.95;5.88;;;21.80;99.90;;;;;;5013828;28;20205;-89
2023/09/20 13:33:06;;;;;;;23.70;5.18;;;21.70;99.90;;;;;;5013166;28;20248;-88
2023/09/20 13:35:37;;;;;;;31.33;5.80;;;21.60;99.90;;;;;;5013391;28;20301;-89
2023/09/20 13:38:08;;;;;;;27.52;5.45;;;21.60;99.90;;;;;;5012023;28;20234;-89
2023/09/20 13:40:41;;;;;;;27.80;5.10;;;21.50;99.90;;;;;;5015422;28;20618;-89
2023/09/20 13:43:13;;;;;;;24.95;5.15;;;21.50;99.90;;;;;;5000127;28;20282;-90
2023/09/20 13:45:44;;;;;;;25.77;4.72;;;21.50;99.90;;;;;;4994809;28;20190;-89
2023/09/20 13:48:15;;;;;;;24.23;4.95;;;21.50;99.90;;;;;;4994358;28;20300;-88
2023/09/20 13:50:47;;;;;;;24.58;5.00;;;21.50;99.90;;;;;;5005309;28;20198;-87
2023/09/20 13:53:17;;;;;;;25.73;5.05;;;21.50;99.90;;;;;;5009865;28;20208;-88